Time;durP1;ratioP1;P1;durP2;ratioP2;P2;SDS_P1;SDS_P2;PMS_P1;PMS_P2;Temp;Humidity;BMP_temperature;BMP_pressure;BME280_temperature;BME280_humidity;BME280_pressure;Samples;Min_cycle;Max_cycle;Signal;HPM_P1;HPM_P2
2022/07/25 00:00:56;;;;;;;10.30;8.15;;;;;;;20.22;72.79;101038.25;2008499;29;33199;-71
2022/07/25 00:01:58;;;;;;;9.38;8.43;;;;;;;20.22;73.11;101040.97;2009581;29;30612;-71
2022/07/25 00:03:00;;;;;;;9.27;8.23;;;;;;;20.21;73.56;101036.53;2009242;29;28618;-71
2022/07/25 00:04:01;;;;;;;9.32;8.43;;;;;;;20.22;73.20;101038.25;2009917;29;20059;-71
2022/07/25 00:05:05;;;;;;;8.57;7.75;;;;;;;20.22;73.09;101038.25;2009139;29;28808;-71
2022/07/25 00:06:07;;;;;;;8.95;7.70;;;;;;;20.19;72.76;101033.91;2009361;29;31257;-71
2022/07/25 00:07:13;;;;;;;9.13;8.23;;;;;;;20.17;72.83;101032.22;2008350;29;25927;-71
2022/07/25 00:08:15;;;;;;;8.40;7.65;;;;;;;20.17;73.33;101030.41;2008595;29;32972;-71
2022/07/25 00:09:19;;;;;;;8.50;7.80;;;;;;;20.15;72.77;101029.63;2009170;29;21033;-70
2022/07/25 00:10:21;;;;;;;8.73;7.82;;;;;;;20.13;73.40;101034.25;2009050;29;38901;-69
2022/07/25 00:11:23;;;;;;;10.10;8.13;;;;;;;20.15;73.68;101035.06;2008804;29;29472;-70
2022/07/25 00:12:24;;;;;;;11.02;8.48;;;;;;;20.12;73.69;101037.97;2009587;29;31395;-70
2022/07/25 00:13:28;;;;;;;11.50;8.98;;;;;;;20.10;73.02;101033.56;2008845;29;39720;-70
2022/07/25 00:14:30;;;;;;;10.32;8.45;;;;;;;20.11;73.42;101040.78;2009788;29;20888;-70
2022/07/25 00:15:32;;;;;;;9.43;8.48;;;;;;;20.09;73.33;101038.16;2016275;29;29988;-70
2022/07/25 00:16:34;;;;;;;8.77;7.97;;;;;;;20.09;73.77;101038.16;2015977;29;28751;-69
2022/07/25 00:17:36;;;;;;;9.60;8.68;;;;;;;20.09;73.38;101031.84;2016097;29;35604;-69
2022/07/25 00:18:38;;;;;;;9.38;8.57;;;;;;;20.08;73.17;101033.69;2016562;29;20038;-70
2022/07/25 00:19:40;;;;;;;9.85;8.60;;;;;;;20.06;73.69;101034.75;2009215;29;33396;-70
2022/07/25 00:20:45;;;;;;;7.88;7.18;;;;;;;20.05;73.16;101028.44;2016162;29;30764;-70
2022/07/25 00:21:47;;;;;;;7.60;6.90;;;;;;;20.02;73.68;101032.19;2015500;29;30493;-70
2022/07/25 00:22:49;;;;;;;9.32;7.53;;;;;;;20.01;73.88;101040.47;2009161;29;31815;-71
2022/07/25 00:23:51;;;;;;;9.90;8.23;;;;;;;19.99;73.45;101040.56;2009228;29;20044;-69
2022/07/25 00:24:53;;;;;;;8.68;7.57;;;;;;;19.98;73.46;101032.50;2009404;29;33758;-71
2022/07/25 00:25:55;;;;;;;9.45;8.45;;;;;;;19.96;73.73;101031.72;2004601;29;27283;-71
2022/07/25 00:26:57;;;;;;;9.30;8.40;;;;;;;19.96;73.70;101031.72;2009384;29;20133;-70
2022/07/25 00:27:58;;;;;;;9.70;8.20;;;;;;;19.96;73.75;101031.72;2000472;29;29983;-70
2022/07/25 00:29:00;;;;;;;9.93;7.85;;;;;;;19.98;73.71;101033.38;2001114;29;33264;-70
2022/07/25 00:30:04;;;;;;;11.40;8.35;;;;;;;19.98;73.29;101024.34;2008007;29;39054;-71
2022/07/25 00:31:08;;;;;;;8.32;7.53;;;;;;;19.97;74.02;101028.91;2009167;29;26289;-70
2022/07/25 00:32:10;;;;;;;9.32;7.68;;;;;;;19.94;73.77;101028.22;2008705;29;33675;-70
2022/07/25 00:33:12;;;;;;;7.53;6.82;;;;;;;19.92;73.59;101027.41;2009115;29;33265;-70
2022/07/25 00:34:14;;;;;;;8.27;7.57;;;;;;;19.87;73.63;101022.28;2007974;29;35658;-72
2022/07/25 00:35:16;;;;;;;7.63;6.93;;;;;;;19.84;73.69;101030.63;2008762;29;29949;-72
2022/07/25 00:36:17;;;;;;;8.07;7.32;;;;;;;19.80;73.97;101027.22;2008943;29;28360;-70
2022/07/25 00:37:19;;;;;;;6.70;6.00;;;;;;;19.77;74.14;101023.81;2009570;29;20177;-70
2022/07/25 00:38:23;;;;;;;8.30;7.43;;;;;;;19.72;73.96;101018.63;2008862;29;30730;-70
2022/07/25 00:39:25;;;;;;;8.82;7.35;;;;;;;19.71;74.44;101016.88;2009420;29;26473;-70
2022/07/25 00:40:27;;;;;;;9.65;8.48;;;;;;;19.68;74.66;101022.47;2008675;29;30903;-70
2022/07/25 00:41:29;;;;;;;9.50;8.30;;;;;;;19.66;74.25;101018.97;2008324;29;38893;-70
2022/07/25 00:42:32;;;;;;;9.05;8.20;;;;;;;19.64;74.71;101020.91;2001220;29;30954;-70
2022/07/25 00:43:33;;;;;;;10.10;8.93;;;;;;;19.64;74.35;101020.91;2001321;29;25101;-70
2022/07/25 00:44:35;;;;;;;9.63;8.45;;;;;;;19.60;74.88;101017.50;2000719;29;35685;-70
2022/07/25 00:45:37;;;;;;;8.20;7.40;;;;;;;19.57;74.99;101022.25;2007731;29;35475;-70
2022/07/25 00:46:39;;;;;;;9.20;8.40;;;;;;;19.54;75.23;101014.28;2007506;29;37345;-70
2022/07/25 00:47:41;;;;;;;9.82;8.20;;;;;;;19.52;75.21;101016.22;2009241;29;30579;-70
2022/07/25 00:48:45;;;;;;;8.50;7.60;;;;;;;19.50;75.30;101018.16;2009419;29;20868;-70
2022/07/25 00:49:47;;;;;;;9.75;8.23;;;;;;;19.46;75.26;101023.75;2008857;29;34969;-70
2022/07/25 00:50:49;;;;;;;9.48;8.02;;;;;;;19.46;75.45;101014.72;2008409;29;29511;-70
2022/07/25 00:51:53;;;;;;;8.43;7.63;;;;;;;19.46;75.71;101018.31;2008677;29;24842;-70
2022/07/25 00:52:55;;;;;;;8.85;7.70;;;;;;;19.46;75.89;101009.31;2007671;29;29016;-70
2022/07/25 00:54:01;;;;;;;8.45;7.50;;;;;;;19.49;76.89;101010.94;2008329;29;35618;-70
2022/07/25 00:55:07;;;;;;;8.70;7.70;;;;;;;19.46;75.69;101010.16;2007809;29;33812;-70
2022/07/25 00:56:09;;;;;;;9.93;8.70;;;;;;;19.48;76.20;101006.50;2009297;29;23193;-69
2022/07/25 00:57:11;;;;;;;8.35;7.55;;;;;;;19.48;76.06;101007.38;2009254;29;20053;-70
2022/07/25 00:58:13;;;;;;;9.65;7.18;;;;;;;19.48;76.64;101009.22;2008906;29;34142;-70
2022/07/25 00:59:18;;;;;;;8.70;7.90;;;;;;;19.46;76.61;101002.03;2000266;29;30618;-70
2022/07/25 01:00:20;;;;;;;8.80;8.00;;;;;;;19.45;76.18;100999.41;2001419;29;27910;-70
2022/07/25 01:01:24;;;;;;;9.02;8.23;;;;;;;19.44;76.53;101003.97;2009143;29;21444;-70
2022/07/25 01:02:25;;;;;;;8.65;7.75;;;;;;;19.44;76.61;100997.66;2009275;29;25037;-70
2022/07/25 01:03:30;;;;;;;10.10;8.13;;;;;;;19.44;76.21;100998.53;2008664;29;34757;-70
2022/07/25 01:04:31;;;;;;;10.32;8.63;;;;;;;19.44;76.49;100998.53;2009780;29;20038;-70
2022/07/25 01:05:33;;;;;;;8.23;7.43;;;;;;;19.44;76.40;101000.38;2008620;29;31250;-70
2022/07/25 01:06:37;;;;;;;9.05;8.10;;;;;;;19.42;76.77;100997.75;2008901;29;34666;-70
2022/07/25 01:07:42;;;;;;;8.93;8.13;;;;;;;19.42;76.49;100989.59;2008428;29;27501;-70
2022/07/25 01:08:44;;;;;;;9.55;8.52;;;;;;;19.41;76.62;100995.97;2008808;29;32558;-71
2022/07/25 01:09:49;;;;;;;11.25;8.90;;;;;;;19.41;76.95;100992.41;2008603;29;20046;-70
2022/07/25 01:10:52;;;;;;;9.13;8.32;;;;;;;19.40;76.84;100991.53;2008323;29;26096;-70
2022/07/25 01:11:53;;;;;;;8.85;8.00;;;;;;;19.38;76.71;100989.84;2007582;29;33679;-70
2022/07/25 01:12:57;;;;;;;8.52;7.72;;;;;;;19.37;76.96;100993.56;2008351;29;32942;-70
2022/07/25 01:13:59;;;;;;;9.45;8.45;;;;;;;19.38;77.16;100989.84;2008089;29;32008;-70
2022/07/25 01:15:01;;;;;;;11.75;9.30;;;;;;;19.37;77.14;100991.72;2009050;29;31460;-70
2022/07/25 01:16:03;;;;;;;9.65;8.52;;;;;;;19.39;76.63;100986.19;2008701;29;24936;-70
2022/07/25 01:17:05;;;;;;;15.05;8.88;;;;;;;19.39;76.58;100976.19;2008786;29;31766;-70
2022/07/25 01:18:07;;;;;;;9.82;8.82;;;;;;;19.38;77.01;100982.63;2008480;29;34609;-70
2022/07/25 01:19:10;;;;;;;9.73;8.50;;;;;;;19.40;76.63;100985.25;2009345;29;20908;-70
2022/07/25 01:20:17;;;;;;;9.35;7.78;;;;;;;19.39;76.79;100978.91;2008835;29;27851;-70
2022/07/25 01:21:19;;;;;;;10.20;9.07;;;;;;;19.42;76.60;100978.75;2007798;29;37098;-70
2022/07/25 01:22:23;;;;;;;8.82;7.95;;;;;;;19.42;76.30;100977.88;2008319;29;25485;-70
2022/07/25 01:23:25;;;;;;;9.32;8.52;;;;;;;19.42;76.49;100977.88;2011600;29;25900;-70
2022/07/25 01:24:28;;;;;;;10.15;8.20;;;;;;;19.42;76.36;100975.16;2016537;29;27006;-70
2022/07/25 01:25:30;;;;;;;10.88;8.35;;;;;;;19.44;76.40;100971.38;2015907;29;24291;-70
2022/07/25 01:26:31;;;;;;;9.27;8.05;;;;;;;19.45;75.73;100973.13;2015785;29;33243;-69
2022/07/25 01:27:35;;;;;;;9.70;8.77;;;;;;;19.45;75.16;100962.28;2016207;29;24842;-70
2022/07/25 01:28:37;;;;;;;9.95;9.00;;;;;;;19.48;75.84;100965.75;2015554;29;31600;-70
2022/07/25 01:29:39;;;;;;;10.32;8.30;;;;;;;19.49;75.56;100965.69;2016506;29;23777;-70
2022/07/25 01:30:41;;;;;;;8.98;8.18;;;;;;;19.49;75.45;100962.06;2016431;29;29231;-70
2022/07/25 01:31:45;;;;;;;8.57;7.78;;;;;;;19.51;74.80;100958.31;2016397;29;30487;-70
2022/07/25 01:32:46;;;;;;;13.02;8.45;;;;;;;19.54;74.92;100959.94;2016656;29;20117;-70
2022/07/25 01:33:48;;;;;;;9.63;7.72;;;;;;;19.52;75.31;100959.19;2016007;29;26302;-70
2022/07/25 01:34:50;;;;;;;9.65;7.93;;;;;;;19.55;75.14;100954.44;2015646;29;33164;-70
2022/07/25 01:35:52;;;;;;;10.15;8.60;;;;;;;19.54;75.05;100955.41;2016826;29;28314;-70
2022/07/25 01:36:53;;;;;;;9.38;8.50;;;;;;;19.53;75.09;100950.06;2015858;29;32375;-70
2022/07/25 01:37:56;;;;;;;8.88;8.07;;;;;;;19.55;74.91;100945.41;2014503;29;20052;-70
2022/07/25 01:39:00;;;;;;;10.73;8.73;;;;;;;19.53;74.90;100945.50;2008586;29;27083;-70
2022/07/25 01:40:03;;;;;;;9.18;8.32;;;;;;;19.54;74.71;100947.28;2008734;29;30195;-70
2022/07/25 01:41:07;;;;;;;9.40;8.48;;;;;;;19.52;75.00;100941.03;2008981;29;20050;-70
2022/07/25 01:42:09;;;;;;;8.25;7.55;;;;;;;19.55;75.02;100942.72;2008690;29;29390;-71
2022/07/25 01:43:14;;;;;;;10.90;8.50;;;;;;;19.54;74.59;100944.56;2008280;29;40474;-70
2022/07/25 01:44:16;;;;;;;9.57;7.95;;;;;;;19.53;74.67;100939.22;2008906;29;23856;-70
2022/07/25 01:45:22;;;;;;;10.48;8.50;;;;;;;19.49;74.60;100934.91;2008120;29;29830;-70
2022/07/25 01:46:24;;;;;;;12.38;8.02;;;;;;;19.45;74.91;100935.13;2009151;29;30080;-70
2022/07/25 01:47:26;;;;;;;8.88;7.63;;;;;;;19.44;75.12;100941.50;2008019;29;25627;-70
2022/07/25 01:48:30;;;;;;;8.57;7.68;;;;;;;19.40;75.25;100942.66;2008145;29;29163;-70
2022/07/25 01:49:31;;;;;;;9.48;8.48;;;;;;;19.44;75.04;100932.50;2008603;29;20245;-70
2022/07/25 01:50:33;;;;;;;10.27;7.80;;;;;;;19.42;74.69;100929.88;2007953;29;32713;-70
2022/07/25 01:51:35;;;;;;;9.30;8.40;;;;;;;19.46;74.80;100930.56;2008471;29;24945;-70
2022/07/25 01:52:38;;;;;;;9.32;8.23;;;;;;;19.48;75.22;100927.75;2009007;29;24203;-69
2022/07/25 01:53:40;;;;;;;8.57;7.50;;;;;;;19.48;74.78;100925.03;2008261;29;32194;-70
2022/07/25 01:54:42;;;;;;;9.93;7.60;;;;;;;19.51;74.67;100923.00;2009361;29;20125;-70
2022/07/25 01:55:47;;;;;;;9.80;8.85;;;;;;;19.53;74.32;100914.78;2008747;29;20046;-70
2022/07/25 01:56:50;;;;;;;8.60;7.75;;;;;;;19.49;74.32;100913.19;2008096;29;31924;-70
2022/07/25 01:57:53;;;;;;;8.23;7.47;;;;;;;19.46;74.37;100917.84;2007949;29;20046;-70
2022/07/25 01:58:55;;;;;;;10.52;8.30;;;;;;;19.48;74.46;100916.88;2008036;29;32590;-70
2022/07/25 01:59:57;;;;;;;8.50;7.70;;;;;;;19.51;74.27;100916.72;2007792;29;31662;-70
2022/07/25 02:00:59;;;;;;;9.93;8.90;;;;;;;19.51;74.40;100912.16;2008085;29;24148;-70
2022/07/25 02:02:01;;;;;;;10.45;8.05;;;;;;;19.51;74.05;100919.44;2007893;29;38453;-70
2022/07/25 02:04:25;;;;;;;8.75;7.95;;;;;;;19.49;74.24;100907.75;2008428;29;31658;-70
2022/07/25 02:05:27;;;;;;;10.45;8.25;;;;;;;19.50;74.08;100914.94;2008646;29;29011;-70
2022/07/25 02:06:30;;;;;;;8.50;7.80;;;;;;;19.47;74.41;100907.88;2008903;29;20049;-70
2022/07/25 02:07:32;;;;;;;9.35;8.35;;;;;;;19.49;74.47;100902.31;2008371;29;32789;-71
2022/07/25 02:08:36;;;;;;;8.95;8.13;;;;;;;19.47;74.34;100907.88;2007755;29;20111;-70
2022/07/25 02:09:41;;;;;;;8.52;7.72;;;;;;;19.45;74.06;100905.25;2008221;29;20066;-70
2022/07/25 02:10:43;;;;;;;10.13;7.68;;;;;;;19.44;74.37;100900.78;2007980;29;31575;-70
2022/07/25 02:11:45;;;;;;;8.70;7.82;;;;;;;19.42;74.21;100902.72;2008777;29;22331;-71
2022/07/25 02:12:47;;;;;;;8.57;7.68;;;;;;;19.43;75.07;100899.03;2008857;29;25813;-72
2022/07/25 02:13:48;;;;;;;8.60;7.72;;;;;;;19.40;74.29;100893.78;2008455;29;27763;-70
2022/07/25 02:14:50;;;;;;;8.70;7.82;;;;;;;19.41;74.96;100898.22;2008565;29;28285;-69
2022/07/25 02:15:53;;;;;;;8.52;7.82;;;;;;;19.40;74.52;100891.06;2008737;29;20042;-70
2022/07/25 02:16:57;;;;;;;8.93;8.05;;;;;;;19.37;74.60;100888.53;2008852;29;20152;-70
2022/07/25 02:17:59;;;;;;;10.70;8.90;;;;;;;19.39;74.57;100894.75;2014839;29;33926;-69
2022/07/25 02:19:02;;;;;;;8.55;7.57;;;;;;;19.37;74.52;100885.81;2015734;29;24242;-70
2022/07/25 02:20:04;;;;;;;8.63;7.72;;;;;;;19.36;74.42;100884.09;2008419;29;24168;-70
2022/07/25 02:21:08;;;;;;;11.70;8.20;;;;;;;19.38;74.64;100879.44;2008273;29;38465;-70
2022/07/25 02:22:14;;;;;;;8.82;7.93;;;;;;;19.36;74.71;100878.66;2015690;29;28948;-69
2022/07/25 02:23:18;;;;;;;8.57;7.70;;;;;;;19.40;74.66;100882.94;2014689;29;31892;-70
2022/07/25 02:24:20;;;;;;;10.05;8.20;;;;;;;19.38;74.65;100875.81;2007452;29;30632;-69
2022/07/25 02:25:22;;;;;;;9.13;8.23;;;;;;;19.37;74.44;100877.66;2008252;29;24699;-70
2022/07/25 02:26:23;;;;;;;9.68;8.05;;;;;;;19.36;74.76;100877.75;2007236;29;35264;-70
2022/07/25 02:27:25;;;;;;;10.80;7.63;;;;;;;19.35;74.65;100874.19;2008305;29;24126;-70
2022/07/25 02:28:27;;;;;;;8.13;7.43;;;;;;;19.34;75.04;100872.41;2008499;29;30953;-70
2022/07/25 02:29:29;;;;;;;9.23;8.00;;;;;;;19.32;74.84;100865.34;2008678;29;24493;-70
2022/07/25 02:30:31;;;;;;;8.77;7.88;;;;;;;19.30;74.77;100865.44;2009080;29;20900;-70
2022/07/25 02:31:33;;;;;;;8.82;8.00;;;;;;;19.31;74.95;100878.06;2008544;29;29043;-70
2022/07/25 02:32:34;;;;;;;10.07;8.55;;;;;;;19.31;74.79;100866.31;2008529;29;30432;-70
2022/07/25 02:33:36;;;;;;;11.35;8.23;;;;;;;19.30;74.97;100867.28;2008799;29;31033;-70
2022/07/25 02:34:38;;;;;;;9.60;8.02;;;;;;;19.26;75.03;100869.31;2008395;29;24172;-70
2022/07/25 02:35:40;;;;;;;8.70;7.90;;;;;;;19.26;75.11;100863.88;2008199;29;28855;-70
2022/07/25 02:36:44;;;;;;;8.68;7.78;;;;;;;19.24;75.02;100860.41;2008359;29;30802;-72
2022/07/25 02:37:46;;;;;;;11.48;8.65;;;;;;;19.23;75.14;100864.06;2007913;29;39029;-70
2022/07/25 02:38:48;;;;;;;8.90;8.05;;;;;;;19.21;75.31;100855.16;2007939;29;26982;-70
2022/07/25 02:39:51;;;;;;;9.45;8.02;;;;;;;19.22;75.17;100859.59;2007405;29;41169;-70
2022/07/25 02:40:52;;;;;;;8.90;8.10;;;;;;;19.19;75.40;100859.78;2007532;29;30815;-70
2022/07/25 02:41:54;;;;;;;8.15;7.45;;;;;;;19.16;75.54;100851.81;2008768;29;20046;-70
2022/07/25 02:42:56;;;;;;;8.73;7.88;;;;;;;19.14;75.59;100853.75;2008393;29;35241;-71
2022/07/25 02:43:58;;;;;;;9.63;8.65;;;;;;;19.10;75.96;100850.38;2008196;29;32090;-72
2022/07/25 02:45:00;;;;;;;8.23;7.35;;;;;;;19.10;76.42;100849.50;2008593;29;26721;-69
2022/07/25 02:46:02;;;;;;;14.82;8.05;;;;;;;19.10;75.95;100844.94;2008428;29;26957;-70
2022/07/25 02:47:04;;;;;;;8.23;7.53;;;;;;;19.10;75.94;100841.34;2008434;29;21462;-72
2022/07/25 02:48:07;;;;;;;8.98;8.18;;;;;;;19.09;75.43;100840.47;2008456;29;28086;-72
2022/07/25 02:49:10;;;;;;;9.30;8.50;;;;;;;19.12;75.63;100839.41;2007751;29;20042;-69
2022/07/25 02:50:12;;;;;;;9.23;8.30;;;;;;;19.10;75.82;100844.06;2007880;29;23070;-70
2022/07/25 02:51:17;;;;;;;12.05;8.75;;;;;;;19.14;75.50;100837.47;2008085;29;27951;-70
2022/07/25 02:52:19;;;;;;;9.10;8.25;;;;;;;19.14;75.42;100829.34;2007944;29;30441;-70
2022/07/25 02:53:20;;;;;;;9.52;7.85;;;;;;;19.17;74.94;100826.44;2008661;29;24342;-70
2022/07/25 02:54:42;;;;;;;9.50;8.10;;;;;;;19.15;74.96;100826.53;2009090;29;20034;-70
2022/07/25 02:55:44;;;;;;;9.15;8.25;;;;;;;19.15;75.08;100821.09;2008287;29;20126;-70
2022/07/25 02:56:46;;;;;;;8.90;8.10;;;;;;;19.15;75.18;100822.94;2008497;29;20042;-70
2022/07/25 02:57:47;;;;;;;10.50;8.60;;;;;;;19.16;75.02;100821.97;2007429;29;35871;-70
2022/07/25 02:58:49;;;;;;;8.65;7.85;;;;;;;19.14;74.77;100815.78;2008814;29;20912;-71
2022/07/25 02:59:54;;;;;;;10.40;8.23;;;;;;;19.14;75.18;100821.19;2007794;29;32943;-72
2022/07/25 03:00:55;;;;;;;7.95;7.07;;;;;;;19.12;75.30;100818.56;2008078;29;30920;-70
2022/07/25 03:02:00;;;;;;;10.27;8.65;;;;;;;19.07;74.62;100816.13;2007647;29;36229;-70
2022/07/25 03:03:02;;;;;;;8.88;7.90;;;;;;;19.06;74.90;100814.41;2008493;29;32373;-70
2022/07/25 03:04:04;;;;;;;8.73;7.82;;;;;;;19.05;74.99;100815.34;2008195;29;20129;-70
2022/07/25 03:05:10;;;;;;;9.95;7.90;;;;;;;19.05;75.28;100815.34;2008491;29;32134;-70
2022/07/25 03:06:14;;;;;;;8.93;8.00;;;;;;;19.05;75.19;100814.47;2008314;29;26231;-70
2022/07/25 03:07:16;;;;;;;10.00;7.13;;;;;;;19.02;75.73;100807.41;2008924;29;20126;-70
2022/07/25 03:08:18;;;;;;;8.60;7.80;;;;;;;19.01;75.27;100813.78;2007919;29;34094;-70
2022/07/25 03:09:24;;;;;;;9.90;7.68;;;;;;;19.01;75.15;100805.66;2009014;29;29443;-70
2022/07/25 03:10:26;;;;;;;9.75;7.70;;;;;;;18.98;75.13;100805.84;2009572;29;36584;-70
2022/07/25 03:11:28;;;;;;;9.48;8.45;;;;;;;18.93;75.62;100810.66;2009098;29;34024;-70
2022/07/25 03:12:31;;;;;;;8.63;7.93;;;;;;;18.93;75.83;100809.78;2009860;29;22488;-70
2022/07/25 03:13:33;;;;;;;10.10;7.93;;;;;;;18.92;75.44;100811.63;2009613;29;30938;-70
2022/07/25 03:14:35;;;;;;;7.95;7.22;;;;;;;18.89;75.66;100806.38;2013277;29;30174;-70
2022/07/25 03:15:37;;;;;;;8.85;7.95;;;;;;;18.91;75.54;100814.44;2017676;29;23495;-70
2022/07/25 03:16:41;;;;;;;8.88;8.02;;;;;;;18.91;75.67;100803.59;2017508;29;20121;-70
2022/07/25 03:17:43;;;;;;;8.30;7.40;;;;;;;18.95;75.22;100806.03;2016936;29;39257;-70
2022/07/25 03:18:45;;;;;;;10.02;7.40;;;;;;;18.97;75.16;100811.34;2017527;29;26143;-70
2022/07/25 03:19:47;;;;;;;9.32;7.82;;;;;;;18.94;74.83;100809.72;2016695;29;32820;-70
2022/07/25 03:20:49;;;;;;;8.35;7.50;;;;;;;18.95;75.04;100807.84;2016089;29;37125;-70
2022/07/25 03:21:50;;;;;;;8.75;7.90;;;;;;;18.94;74.72;100804.28;2016776;29;39962;-70
2022/07/25 03:22:52;;;;;;;9.02;7.78;;;;;;;18.91;75.40;100799.03;2017367;29;20922;-70
2022/07/25 03:23:54;;;;;;;8.55;7.25;;;;;;;18.91;75.45;100795.44;2016343;29;32588;-70
2022/07/25 03:24:56;;;;;;;8.45;7.65;;;;;;;18.88;75.49;100804.66;2016137;29;32924;-70
2022/07/25 03:26:00;;;;;;;7.60;6.90;;;;;;;18.88;75.16;100794.66;2017160;29;37369;-70
2022/07/25 03:27:02;;;;;;;8.18;7.38;;;;;;;18.92;74.81;100798.06;2016637;29;34377;-70
2022/07/25 03:28:06;;;;;;;8.73;7.85;;;;;;;18.93;74.85;100797.09;2017271;29;32491;-70
2022/07/25 03:29:08;;;;;;;7.93;7.13;;;;;;;18.92;74.80;100792.66;2016832;29;29459;-70
2022/07/25 03:30:11;;;;;;;7.68;6.63;;;;;;;18.94;74.81;100796.13;2016849;29;34366;-70
2022/07/25 03:31:12;;;;;;;8.02;7.30;;;;;;;18.93;75.12;100794.38;2017143;29;22985;-70
2022/07/25 03:32:14;;;;;;;8.02;7.22;;;;;;;18.99;74.14;100788.59;2017453;29;28625;-70
2022/07/25 03:33:16;;;;;;;7.65;6.90;;;;;;;19.00;74.01;100790.31;2016590;29;39635;-70
2022/07/25 03:34:20;;;;;;;9.52;7.28;;;;;;;19.02;74.28;100783.00;2017420;29;29020;-70
2022/07/25 03:35:22;;;;;;;7.40;6.80;;;;;;;19.02;73.70;100788.41;2016953;29;27005;-70
2022/07/25 03:36:24;;;;;;;8.38;7.60;;;;;;;19.04;74.29;100785.59;2017541;29;25862;-70
2022/07/25 03:37:26;;;;;;;9.50;8.05;;;;;;;19.05;73.86;100779.22;2017073;29;24728;-70
2022/07/25 03:38:28;;;;;;;9.20;7.32;;;;;;;19.07;73.92;100779.97;2010798;29;39475;-70
2022/07/25 03:39:30;;;;;;;8.48;7.43;;;;;;;19.07;73.91;100778.13;2008435;29;26104;-70
2022/07/25 03:40:35;;;;;;;8.27;7.47;;;;;;;19.09;73.46;100775.31;2009587;29;27096;-70
2022/07/25 03:41:37;;;;;;;7.50;6.78;;;;;;;19.12;73.65;100774.28;2009097;29;25227;-70
2022/07/25 03:42:39;;;;;;;9.45;7.50;;;;;;;19.15;73.13;100774.06;2009606;29;29349;-70
2022/07/25 03:43:40;;;;;;;7.90;7.10;;;;;;;19.15;73.42;100772.25;2009198;29;33381;-70
2022/07/25 03:44:42;;;;;;;11.05;7.35;;;;;;;19.19;72.85;100775.66;2009772;29;26345;-70
2022/07/25 03:45:44;;;;;;;7.63;6.95;;;;;;;19.20;72.97;100772.84;2009065;29;28283;-70
2022/07/25 03:46:46;;;;;;;8.20;7.22;;;;;;;19.23;72.38;100767.22;2009597;29;27375;-70
2022/07/25 03:47:48;;;;;;;8.70;7.07;;;;;;;19.25;72.77;100775.25;2009306;29;29132;-70
2022/07/25 03:48:49;;;;;;;7.95;7.20;;;;;;;19.25;72.56;100769.84;2009582;29;28140;-70
2022/07/25 03:49:51;;;;;;;8.45;6.55;;;;;;;19.28;72.64;100769.66;2009321;29;27440;-70
2022/07/25 03:50:55;;;;;;;7.97;6.65;;;;;;;19.26;72.90;100766.16;2009177;29;38088;-70
2022/07/25 03:51:58;;;;;;;9.38;7.70;;;;;;;19.32;72.73;100764.91;2008858;29;33746;-70
2022/07/25 03:53:00;;;;;;;7.88;7.10;;;;;;;19.34;72.36;100762.97;2009822;29;23229;-70
2022/07/25 03:54:02;;;;;;;8.27;7.47;;;;;;;19.34;72.14;100758.41;2009382;29;22271;-70
2022/07/25 03:55:07;;;;;;;8.82;7.30;;;;;;;19.34;72.73;100750.25;2009169;29;28108;-70
2022/07/25 03:56:09;;;;;;;7.32;6.63;;;;;;;19.37;71.74;100749.19;2009231;29;24640;-71
2022/07/25 03:57:11;;;;;;;9.75;7.15;;;;;;;19.37;71.56;100744.63;2009506;29;25283;-70
2022/07/25 03:58:15;;;;;;;8.57;6.90;;;;;;;19.40;72.15;100739.03;2009371;29;26019;-70
2022/07/25 03:59:20;;;;;;;9.43;7.28;;;;;;;19.44;71.07;100737.84;2009549;29;26018;-70
2022/07/25 04:00:22;;;;;;;8.60;7.05;;;;;;;19.48;71.45;100745.81;2008987;29;32590;-70
2022/07/25 04:01:24;;;;;;;7.28;6.63;;;;;;;19.49;71.67;100743.00;2009675;29;20038;-70
2022/07/25 04:02:27;;;;;;;7.00;6.30;;;;;;;19.53;70.90;100738.25;2009078;29;28181;-70
2022/07/25 04:03:29;;;;;;;8.43;7.30;;;;;;;19.54;71.12;100726.41;2010316;29;20089;-70
2022/07/25 04:04:31;;;;;;;7.55;6.85;;;;;;;19.54;71.42;100740.88;2008879;29;25462;-70
2022/07/25 04:05:32;;;;;;;7.50;6.90;;;;;;;19.59;70.58;100722.41;2009390;29;28083;-70
2022/07/25 04:06:35;;;;;;;7.80;7.05;;;;;;;19.61;70.32;100725.03;2009043;29;23831;-70
2022/07/25 04:07:37;;;;;;;8.00;6.72;;;;;;;19.62;70.32;100726.78;2009244;29;33983;-70
2022/07/25 04:08:39;;;;;;;7.57;6.88;;;;;;;19.65;70.21;100727.47;2008683;29;33495;-70
2022/07/25 04:09:41;;;;;;;7.60;6.80;;;;;;;19.69;70.67;100724.56;2009218;29;24027;-70
2022/07/25 04:10:42;;;;;;;7.70;6.30;;;;;;;19.70;69.90;100726.28;2009067;29;27650;-70
2022/07/25 04:11:44;;;;;;;9.27;6.95;;;;;;;19.74;70.31;100727.84;2009138;29;25848;-70
2022/07/25 04:12:46;;;;;;;8.00;7.20;;;;;;;19.83;69.73;100724.56;2008760;29;29846;-70
2022/07/25 04:13:49;;;;;;;6.80;6.20;;;;;;;19.99;69.61;100732.56;2009575;29;26554;-70
2022/07/25 04:14:50;;;;;;;6.82;5.97;;;;;;;20.15;69.12;100726.97;2008040;29;37870;-72
2022/07/25 04:15:52;;;;;;;7.88;6.68;;;;;;;20.26;68.53;100729.00;2008699;29;30809;-70
2022/07/25 04:16:56;;;;;;;7.53;6.22;;;;;;;20.34;67.82;100721.19;2009146;29;34087;-71
2022/07/25 04:17:58;;;;;;;6.93;6.22;;;;;;;20.40;67.61;100727.09;2008967;29;36163;-71
2022/07/25 04:19:02;;;;;;;9.18;6.80;;;;;;;20.37;68.10;100732.75;2008864;29;36572;-71
2022/07/25 04:20:05;;;;;;;9.80;6.90;;;;;;;20.43;67.19;100726.00;2009200;29;24908;-70
2022/07/25 04:21:10;;;;;;;7.05;6.32;;;;;;;20.45;67.70;100721.34;2009093;29;24078;-70
2022/07/25 04:22:14;;;;;;;8.18;6.43;;;;;;;20.44;67.00;100725.03;2009780;29;25652;-70
2022/07/25 04:23:16;;;;;;;8.75;7.85;;;;;;;20.41;67.18;100717.09;2008764;29;27543;-70
2022/07/25 04:24:18;;;;;;;10.73;6.53;;;;;;;20.44;67.24;100718.72;2009599;29;24044;-70
2022/07/25 04:25:20;;;;;;;8.15;6.78;;;;;;;20.45;66.78;100715.91;2009088;29;33403;-70
2022/07/25 04:26:21;;;;;;;8.80;7.38;;;;;;;20.43;66.88;100706.13;2008692;29;35776;-70
2022/07/25 04:27:23;;;;;;;7.88;7.07;;;;;;;20.44;66.90;100703.28;2009174;29;24840;-69
2022/07/25 04:28:26;;;;;;;6.68;6.15;;;;;;;20.47;66.79;100704.91;2008903;29;32358;-70
2022/07/25 04:29:30;;;;;;;10.20;6.95;;;;;;;20.42;67.42;100702.50;2008606;29;36909;-71
2022/07/25 04:30:31;;;;;;;8.13;7.32;;;;;;;20.42;67.59;100694.34;2009061;29;34159;-71
2022/07/25 04:31:33;;;;;;;8.60;7.20;;;;;;;20.41;67.31;100701.63;2008395;29;38019;-70
2022/07/25 04:32:37;;;;;;;7.85;7.05;;;;;;;20.41;67.66;100701.63;2009197;29;25415;-70
2022/07/25 04:33:41;;;;;;;7.72;6.90;;;;;;;20.43;66.67;100698.81;2009115;29;27989;-70
2022/07/25 04:34:43;;;;;;;7.18;6.57;;;;;;;20.46;66.72;100701.34;2009166;29;31417;-70
2022/07/25 04:35:46;;;;;;;7.50;6.80;;;;;;;20.48;66.93;100702.09;2008769;29;24213;-70
2022/07/25 04:36:48;;;;;;;8.00;6.60;;;;;;;20.56;66.76;100698.84;2009597;29;25447;-71
2022/07/25 04:37:50;;;;;;;7.60;6.90;;;;;;;20.61;66.52;100696.72;2008805;29;38262;-70
2022/07/25 04:38:52;;;;;;;9.57;7.60;;;;;;;20.60;66.66;100693.09;2009261;29;33949;-70
2022/07/25 04:39:54;;;;;;;9.52;7.18;;;;;;;20.60;66.88;100697.66;2009116;29;24611;-70
2022/07/25 04:40:58;;;;;;;8.65;6.85;;;;;;;20.65;66.26;100691.94;2009291;29;22436;-70
2022/07/25 04:42:00;;;;;;;8.27;7.40;;;;;;;20.65;65.96;100697.38;2008892;29;25739;-70
2022/07/25 04:43:05;;;;;;;7.57;6.88;;;;;;;20.81;65.89;100691.75;2009172;29;31528;-71
2022/07/25 04:44:07;;;;;;;8.23;7.20;;;;;;;20.91;65.68;100695.56;2009085;29;24297;-68
2022/07/25 04:45:10;;;;;;;7.95;7.15;;;;;;;20.92;64.98;100694.56;2008910;29;32225;-70
2022/07/25 04:46:11;;;;;;;8.15;7.35;;;;;;;20.96;64.84;100696.97;2009147;29;24744;-71
2022/07/25 04:47:13;;;;;;;13.38;7.22;;;;;;;20.98;65.27;100689.56;2009439;29;32098;-72
2022/07/25 04:48:15;;;;;;;8.82;7.55;;;;;;;20.96;65.29;100688.81;2008570;29;31558;-71
2022/07/25 04:49:17;;;;;;;9.88;7.70;;;;;;;21.04;65.03;100685.53;2008930;29;33143;-69
2022/07/25 04:50:19;;;;;;;7.43;6.72;;;;;;;21.16;64.59;100681.09;2009215;29;25209;-72
2022/07/25 04:51:28;;;;;;;9.27;7.55;;;;;;;21.31;64.28;100679.97;2009608;29;20058;-70
2022/07/25 04:52:29;;;;;;;8.38;7.57;;;;;;;21.53;63.09;100678.44;2008634;29;30524;-70